Saint-Tropez, France
Current Conditions -  °F | °C
As of 6:30 AM on Sunday 21 Dec 2014 (Local Time) from LFMD Reporting Station
Few Clouds Few Clouds  
Wind Chill: 38°   Ceiling: Unl
Heat Index: 43°   Visibility: 6mi
Dew Point: 39°   Wind: 8mph
Humidity: 87%   Direction: 360°N
Pressure: 30.21"   Gusts: NA
Location:  43.27°N, 6.64°E
Report Text: LFMD 210530Z AUTO 36007KT 320V030 9999 FEW028 06/04 Q1023
Loading
Personal Weather Stations






























Interactive Weather Map New forecast layout! Learn more

10-Day Weather Forecast

Advertisements
Track Severe Weather on mobile